sensor_id;sensor_type;location;lat;lon;timestamp;P1;durP1;ratioP1;P2;durP2;ratioP2
51312;SDS011;37397;53.226;10.400;2022-12-18T00:02:10;30.40;;;16.95;;
51312;SDS011;37397;53.226;10.400;2022-12-18T00:04:37;31.90;;;17.85;;
51312;SDS011;37397;53.226;10.400;2022-12-18T00:07:03;29.30;;;17.10;;
51312;SDS011;37397;53.226;10.400;2022-12-18T00:09:30;29.95;;;17.27;;
51312;SDS011;37397;53.226;10.400;2022-12-18T00:12:06;30.42;;;17.23;;
51312;SDS011;37397;53.226;10.400;2022-12-18T00:14:41;33.75;;;17.75;;
51312;SDS011;37397;53.226;10.400;2022-12-18T00:17:08;31.67;;;17.42;;
51312;SDS011;37397;53.226;10.400;2022-12-18T00:19:34;35.03;;;18.40;;
51312;SDS011;37397;53.226;10.400;2022-12-18T00:22:00;33.47;;;17.80;;
51312;SDS011;37397;53.226;10.400;2022-12-18T00:24:27;29.42;;;17.70;;
51312;SDS011;37397;53.226;10.400;2022-12-18T00:26:53;31.65;;;17.27;;
51312;SDS011;37397;53.226;10.400;2022-12-18T00:29:20;28.77;;;17.42;;
51312;SDS011;37397;53.226;10.400;2022-12-18T00:31:47;34.03;;;19.15;;
51312;SDS011;37397;53.226;10.400;2022-12-18T00:34:13;33.42;;;20.08;;
51312;SDS011;37397;53.226;10.400;2022-12-18T00:36:40;38.65;;;20.92;;
51312;SDS011;37397;53.226;10.400;2022-12-18T00:39:07;37.38;;;19.52;;
51312;SDS011;37397;53.226;10.400;2022-12-18T00:41:34;33.75;;;19.77;;
51312;SDS011;37397;53.226;10.400;2022-12-18T00:44:20;30.73;;;18.02;;
51312;SDS011;37397;53.226;10.400;2022-12-18T00:46:47;32.85;;;19.15;;
51312;SDS011;37397;53.226;10.400;2022-12-18T00:49:18;34.53;;;18.42;;
51312;SDS011;37397;53.226;10.400;2022-12-18T00:51:45;31.80;;;18.02;;
51312;SDS011;37397;53.226;10.400;2022-12-18T00:54:12;31.60;;;18.92;;
51312;SDS011;37397;53.226;10.400;2022-12-18T00:56:40;33.35;;;19.40;;
51312;SDS011;37397;53.226;10.400;2022-12-18T00:59:14;33.13;;;18.08;;
51312;SDS011;37397;53.226;10.400;2022-12-18T01:01:42;31.10;;;18.20;;
51312;SDS011;37397;53.226;10.400;2022-12-18T01:04:09;35.42;;;19.77;;
51312;SDS011;37397;53.226;10.400;2022-12-18T01:06:36;32.00;;;18.25;;
51312;SDS011;37397;53.226;10.400;2022-12-18T01:09:02;33.80;;;19.00;;
51312;SDS011;37397;53.226;10.400;2022-12-18T01:11:29;33.25;;;19.02;;
51312;SDS011;37397;53.226;10.400;2022-12-18T01:13:55;36.03;;;19.38;;
51312;SDS011;37397;53.226;10.400;2022-12-18T01:16:22;33.08;;;19.38;;
51312;SDS011;37397;53.226;10.400;2022-12-18T01:18:52;34.95;;;19.48;;
51312;SDS011;37397;53.226;10.400;2022-12-18T01:21:20;34.38;;;19.23;;
51312;SDS011;37397;53.226;10.400;2022-12-18T01:23:51;35.88;;;19.30;;
51312;SDS011;37397;53.226;10.400;2022-12-18T01:26:19;33.58;;;18.67;;
51312;SDS011;37397;53.226;10.400;2022-12-18T01:28:45;33.70;;;18.88;;
51312;SDS011;37397;53.226;10.400;2022-12-18T01:31:22;32.95;;;18.88;;
51312;SDS011;37397;53.226;10.400;2022-12-18T01:33:54;36.33;;;20.23;;
51312;SDS011;37397;53.226;10.400;2022-12-18T01:36:22;33.42;;;18.70;;
51312;SDS011;37397;53.226;10.400;2022-12-18T01:38:54;40.55;;;20.70;;
51312;SDS011;37397;53.226;10.400;2022-12-18T01:41:22;33.65;;;19.30;;
51312;SDS011;37397;53.226;10.400;2022-12-18T01:43:55;36.97;;;19.85;;
51312;SDS011;37397;53.226;10.400;2022-12-18T01:46:24;32.03;;;18.17;;
51312;SDS011;37397;53.226;10.400;2022-12-18T01:48:58;33.25;;;19.15;;
51312;SDS011;37397;53.226;10.400;2022-12-18T01:51:27;28.98;;;14.77;;
51312;SDS011;37397;53.226;10.400;2022-12-18T01:53:56;33.90;;;19.63;;
51312;SDS011;37397;53.226;10.400;2022-12-18T01:56:25;33.97;;;19.10;;
51312;SDS011;37397;53.226;10.400;2022-12-18T01:58:58;36.50;;;19.73;;
51312;SDS011;37397;53.226;10.400;2022-12-18T02:01:28;33.30;;;18.92;;
51312;SDS011;37397;53.226;10.400;2022-12-18T02:07:37;30.75;;;18.38;;
51312;SDS011;37397;53.226;10.400;2022-12-18T02:09:52;29.75;;;18.17;;
51312;SDS011;37397;53.226;10.400;2022-12-18T02:15:58;32.38;;;18.05;;
51312;SDS011;37397;53.226;10.400;2022-12-18T02:18:35;33.17;;;17.98;;
51312;SDS011;37397;53.226;10.400;2022-12-18T02:26:50;36.20;;;18.52;;
51312;SDS011;37397;53.226;10.400;2022-12-18T02:29:26;36.38;;;17.92;;
51312;SDS011;37397;53.226;10.400;2022-12-18T02:32:04;34.22;;;19.70;;
51312;SDS011;37397;53.226;10.400;2022-12-18T02:34:40;33.50;;;19.25;;
51312;SDS011;37397;53.226;10.400;2022-12-18T02:37:14;34.65;;;18.70;;
51312;SDS011;37397;53.226;10.400;2022-12-18T02:39:44;34.95;;;18.95;;
51312;SDS011;37397;53.226;10.400;2022-12-18T02:42:14;37.13;;;19.88;;
51312;SDS011;37397;53.226;10.400;2022-12-18T02:44:43;33.47;;;19.90;;
51312;SDS011;37397;53.226;10.400;2022-12-18T02:47:13;37.92;;;19.13;;
51312;SDS011;37397;53.226;10.400;2022-12-18T02:52:35;35.45;;;20.00;;
51312;SDS011;37397;53.226;10.400;2022-12-18T02:58:03;33.45;;;19.77;;
51312;SDS011;37397;53.226;10.400;2022-12-18T03:00:41;37.72;;;19.42;;
51312;SDS011;37397;53.226;10.400;2022-12-18T03:03:24;41.13;;;20.67;;
51312;SDS011;37397;53.226;10.400;2022-12-18T03:08:48;36.80;;;20.42;;
51312;SDS011;37397;53.226;10.400;2022-12-18T03:11:20;36.38;;;21.58;;
51312;SDS011;37397;53.226;10.400;2022-12-18T03:14:09;37.25;;;20.95;;
51312;SDS011;37397;53.226;10.400;2022-12-18T03:16:38;36.33;;;21.75;;
51312;SDS011;37397;53.226;10.400;2022-12-18T03:19:14;36.35;;;21.40;;
51312;SDS011;37397;53.226;10.400;2022-12-18T03:21:49;35.92;;;20.92;;
51312;SDS011;37397;53.226;10.400;2022-12-18T03:24:19;35.50;;;21.90;;
51312;SDS011;37397;53.226;10.400;2022-12-18T03:26:53;38.33;;;21.58;;
51312;SDS011;37397;53.226;10.400;2022-12-18T03:29:26;37.83;;;22.00;;
51312;SDS011;37397;53.226;10.400;2022-12-18T03:32:05;36.13;;;21.52;;
51312;SDS011;37397;53.226;10.400;2022-12-18T03:34:38;40.22;;;21.08;;
51312;SDS011;37397;53.226;10.400;2022-12-18T03:37:11;35.85;;;20.58;;
51312;SDS011;37397;53.226;10.400;2022-12-18T03:39:37;37.70;;;21.15;;
51312;SDS011;37397;53.226;10.400;2022-12-18T03:45:52;40.97;;;22.08;;
51312;SDS011;37397;53.226;10.400;2022-12-18T03:47:58;36.58;;;21.67;;
51312;SDS011;37397;53.226;10.400;2022-12-18T03:50:36;42.50;;;21.10;;
51312;SDS011;37397;53.226;10.400;2022-12-18T03:55:54;38.10;;;20.77;;
51312;SDS011;37397;53.226;10.400;2022-12-18T03:58:27;41.38;;;21.95;;
51312;SDS011;37397;53.226;10.400;2022-12-18T04:01:06;42.70;;;21.92;;
51312;SDS011;37397;53.226;10.400;2022-12-18T04:03:36;39.88;;;23.17;;
51312;SDS011;37397;53.226;10.400;2022-12-18T04:06:06;36.85;;;21.48;;
51312;SDS011;37397;53.226;10.400;2022-12-18T04:08:33;40.95;;;22.48;;
51312;SDS011;37397;53.226;10.400;2022-12-18T04:11:05;39.72;;;22.75;;
51312;SDS011;37397;53.226;10.400;2022-12-18T04:13:34;42.35;;;23.15;;
51312;SDS011;37397;53.226;10.400;2022-12-18T04:16:08;38.83;;;22.17;;
51312;SDS011;37397;53.226;10.400;2022-12-18T04:18:39;44.85;;;23.33;;
51312;SDS011;37397;53.226;10.400;2022-12-18T04:21:07;37.78;;;22.40;;
51312;SDS011;37397;53.226;10.400;2022-12-18T04:23:33;45.58;;;23.13;;
51312;SDS011;37397;53.226;10.400;2022-12-18T04:26:00;41.55;;;23.17;;
51312;SDS011;37397;53.226;10.400;2022-12-18T04:28:41;40.92;;;22.42;;
51312;SDS011;37397;53.226;10.400;2022-12-18T04:31:08;38.17;;;22.85;;
51312;SDS011;37397;53.226;10.400;2022-12-18T04:33:35;42.53;;;23.10;;
51312;SDS011;37397;53.226;10.400;2022-12-18T04:36:02;40.30;;;22.65;;
51312;SDS011;37397;53.226;10.400;2022-12-18T04:38:29;43.85;;;23.33;;
51312;SDS011;37397;53.226;10.400;2022-12-18T04:43:29;41.42;;;23.38;;
51312;SDS011;37397;53.226;10.400;2022-12-18T04:46:02;43.65;;;23.13;;
51312;SDS011;37397;53.226;10.400;2022-12-18T04:48:30;45.83;;;23.75;;
51312;SDS011;37397;53.226;10.400;2022-12-18T04:50:57;41.03;;;23.08;;
51312;SDS011;37397;53.226;10.400;2022-12-18T04:53:23;41.78;;;23.17;;
51312;SDS011;37397;53.226;10.400;2022-12-18T04:55:50;42.75;;;22.98;;
51312;SDS011;37397;53.226;10.400;2022-12-18T04:58:16;43.83;;;24.40;;
51312;SDS011;37397;53.226;10.400;2022-12-18T05:00:42;42.28;;;23.75;;
51312;SDS011;37397;53.226;10.400;2022-12-18T05:03:09;42.17;;;23.80;;
51312;SDS011;37397;53.226;10.400;2022-12-18T05:05:35;41.50;;;23.33;;
51312;SDS011;37397;53.226;10.400;2022-12-18T05:08:02;45.53;;;24.50;;
51312;SDS011;37397;53.226;10.400;2022-12-18T05:10:28;46.33;;;24.63;;
51312;SDS011;37397;53.226;10.400;2022-12-18T05:13:03;38.78;;;21.33;;
51312;SDS011;37397;53.226;10.400;2022-12-18T05:15:30;43.47;;;23.75;;
51312;SDS011;37397;53.226;10.400;2022-12-18T05:17:58;43.90;;;23.90;;
51312;SDS011;37397;53.226;10.400;2022-12-18T05:20:25;40.97;;;22.23;;
51312;SDS011;37397;53.226;10.400;2022-12-18T05:22:54;47.67;;;24.45;;
51312;SDS011;37397;53.226;10.400;2022-12-18T05:25:21;45.00;;;23.17;;
51312;SDS011;37397;53.226;10.400;2022-12-18T05:27:48;43.55;;;23.20;;
51312;SDS011;37397;53.226;10.400;2022-12-18T05:30:15;40.78;;;22.55;;
51312;SDS011;37397;53.226;10.400;2022-12-18T05:32:42;40.30;;;22.17;;
51312;SDS011;37397;53.226;10.400;2022-12-18T05:35:09;40.22;;;22.17;;
51312;SDS011;37397;53.226;10.400;2022-12-18T05:37:37;45.03;;;23.85;;
51312;SDS011;37397;53.226;10.400;2022-12-18T05:40:09;45.03;;;24.35;;
51312;SDS011;37397;53.226;10.400;2022-12-18T05:42:36;41.78;;;22.77;;
51312;SDS011;37397;53.226;10.400;2022-12-18T05:45:03;37.47;;;21.27;;
51312;SDS011;37397;53.226;10.400;2022-12-18T05:47:30;45.28;;;24.73;;
51312;SDS011;37397;53.226;10.400;2022-12-18T05:49:57;50.08;;;25.90;;
51312;SDS011;37397;53.226;10.400;2022-12-18T05:52:23;45.10;;;25.33;;
51312;SDS011;37397;53.226;10.400;2022-12-18T05:54:50;53.35;;;27.08;;
51312;SDS011;37397;53.226;10.400;2022-12-18T05:57:17;44.53;;;24.15;;
51312;SDS011;37397;53.226;10.400;2022-12-18T05:59:43;46.40;;;26.15;;
51312;SDS011;37397;53.226;10.400;2022-12-18T06:02:10;48.20;;;25.50;;
51312;SDS011;37397;53.226;10.400;2022-12-18T06:04:36;51.17;;;26.15;;
51312;SDS011;37397;53.226;10.400;2022-12-18T06:07:03;45.47;;;24.17;;
51312;SDS011;37397;53.226;10.400;2022-12-18T06:09:29;44.75;;;24.35;;
51312;SDS011;37397;53.226;10.400;2022-12-18T06:11:56;50.80;;;25.23;;
51312;SDS011;37397;53.226;10.400;2022-12-18T06:14:22;45.90;;;23.70;;
51312;SDS011;37397;53.226;10.400;2022-12-18T06:16:50;43.90;;;23.85;;
51312;SDS011;37397;53.226;10.400;2022-12-18T06:19:17;42.03;;;24.00;;
51312;SDS011;37397;53.226;10.400;2022-12-18T06:21:44;47.92;;;23.90;;
51312;SDS011;37397;53.226;10.400;2022-12-18T06:24:10;44.50;;;25.92;;
51312;SDS011;37397;53.226;10.400;2022-12-18T06:26:37;41.75;;;24.15;;
51312;SDS011;37397;53.226;10.400;2022-12-18T06:29:05;42.22;;;23.77;;
51312;SDS011;37397;53.226;10.400;2022-12-18T06:31:32;44.03;;;23.73;;
51312;SDS011;37397;53.226;10.400;2022-12-18T06:33:58;44.28;;;24.15;;
51312;SDS011;37397;53.226;10.400;2022-12-18T06:36:26;43.88;;;24.13;;
51312;SDS011;37397;53.226;10.400;2022-12-18T06:38:54;42.03;;;24.42;;
51312;SDS011;37397;53.226;10.400;2022-12-18T06:41:20;45.42;;;24.27;;
51312;SDS011;37397;53.226;10.400;2022-12-18T06:43:48;46.95;;;24.50;;
51312;SDS011;37397;53.226;10.400;2022-12-18T06:46:14;46.92;;;25.13;;
51312;SDS011;37397;53.226;10.400;2022-12-18T06:48:41;45.47;;;23.77;;
51312;SDS011;37397;53.226;10.400;2022-12-18T06:51:08;46.53;;;23.88;;
51312;SDS011;37397;53.226;10.400;2022-12-18T06:53:34;45.25;;;24.33;;
51312;SDS011;37397;53.226;10.400;2022-12-18T06:56:01;46.53;;;24.10;;
51312;SDS011;37397;53.226;10.400;2022-12-18T06:58:36;42.33;;;22.75;;
51312;SDS011;37397;53.226;10.400;2022-12-18T07:01:03;44.97;;;23.52;;
51312;SDS011;37397;53.226;10.400;2022-12-18T07:03:31;44.28;;;23.20;;
51312;SDS011;37397;53.226;10.400;2022-12-18T07:05:58;44.80;;;24.48;;
51312;SDS011;37397;53.226;10.400;2022-12-18T07:08:24;46.45;;;23.50;;
51312;SDS011;37397;53.226;10.400;2022-12-18T07:10:51;47.85;;;23.77;;
51312;SDS011;37397;53.226;10.400;2022-12-18T07:13:21;47.63;;;24.77;;
51312;SDS011;37397;53.226;10.400;2022-12-18T07:15:48;51.33;;;25.52;;
51312;SDS011;37397;53.226;10.400;2022-12-18T07:18:14;47.35;;;24.15;;
51312;SDS011;37397;53.226;10.400;2022-12-18T07:20:41;46.05;;;23.80;;
51312;SDS011;37397;53.226;10.400;2022-12-18T07:23:07;45.22;;;23.83;;
51312;SDS011;37397;53.226;10.400;2022-12-18T07:25:34;44.95;;;24.77;;
51312;SDS011;37397;53.226;10.400;2022-12-18T07:28:01;45.45;;;25.40;;
51312;SDS011;37397;53.226;10.400;2022-12-18T07:30:28;51.78;;;25.98;;
51312;SDS011;37397;53.226;10.400;2022-12-18T07:32:55;56.58;;;28.42;;
51312;SDS011;37397;53.226;10.400;2022-12-18T07:35:21;54.92;;;27.30;;
51312;SDS011;37397;53.226;10.400;2022-12-18T07:37:50;59.88;;;30.27;;
51312;SDS011;37397;53.226;10.400;2022-12-18T07:40:17;60.53;;;30.65;;
51312;SDS011;37397;53.226;10.400;2022-12-18T07:42:43;59.10;;;29.70;;
51312;SDS011;37397;53.226;10.400;2022-12-18T07:45:10;57.25;;;28.60;;
51312;SDS011;37397;53.226;10.400;2022-12-18T07:47:36;57.30;;;28.40;;
51312;SDS011;37397;53.226;10.400;2022-12-18T07:50:03;55.67;;;28.30;;
51312;SDS011;37397;53.226;10.400;2022-12-18T07:52:30;54.75;;;27.83;;
51312;SDS011;37397;53.226;10.400;2022-12-18T07:54:58;51.60;;;26.38;;
51312;SDS011;37397;53.226;10.400;2022-12-18T07:57:24;51.78;;;26.63;;
51312;SDS011;37397;53.226;10.400;2022-12-18T08:00:11;51.25;;;27.23;;
51312;SDS011;37397;53.226;10.400;2022-12-18T08:02:38;48.78;;;24.48;;
51312;SDS011;37397;53.226;10.400;2022-12-18T08:05:05;43.20;;;25.25;;
51312;SDS011;37397;53.226;10.400;2022-12-18T08:07:32;48.00;;;25.83;;
51312;SDS011;37397;53.226;10.400;2022-12-18T08:09:58;47.67;;;24.38;;
51312;SDS011;37397;53.226;10.400;2022-12-18T08:12:25;47.40;;;25.88;;
51312;SDS011;37397;53.226;10.400;2022-12-18T08:14:51;45.80;;;24.10;;
51312;SDS011;37397;53.226;10.400;2022-12-18T08:17:19;46.42;;;24.55;;
51312;SDS011;37397;53.226;10.400;2022-12-18T08:19:46;45.60;;;23.00;;
51312;SDS011;37397;53.226;10.400;2022-12-18T08:22:12;44.22;;;24.42;;
51312;SDS011;37397;53.226;10.400;2022-12-18T08:24:39;46.67;;;23.30;;
51312;SDS011;37397;53.226;10.400;2022-12-18T08:27:05;46.90;;;25.30;;
51312;SDS011;37397;53.226;10.400;2022-12-18T08:29:52;46.08;;;24.45;;
51312;SDS011;37397;53.226;10.400;2022-12-18T08:32:18;49.97;;;24.95;;
51312;SDS011;37397;53.226;10.400;2022-12-18T08:34:45;55.28;;;26.67;;
51312;SDS011;37397;53.226;10.400;2022-12-18T08:37:11;46.47;;;25.05;;
51312;SDS011;37397;53.226;10.400;2022-12-18T08:39:38;48.05;;;24.42;;
51312;SDS011;37397;53.226;10.400;2022-12-18T08:42:05;47.85;;;25.30;;
51312;SDS011;37397;53.226;10.400;2022-12-18T08:44:50;52.55;;;26.27;;
51312;SDS011;37397;53.226;10.400;2022-12-18T08:47:16;49.80;;;24.38;;
51312;SDS011;37397;53.226;10.400;2022-12-18T08:49:42;47.63;;;24.88;;
51312;SDS011;37397;53.226;10.400;2022-12-18T08:52:09;52.92;;;26.58;;
51312;SDS011;37397;53.226;10.400;2022-12-18T08:54:35;46.92;;;24.80;;
51312;SDS011;37397;53.226;10.400;2022-12-18T08:57:02;50.55;;;24.05;;
51312;SDS011;37397;53.226;10.400;2022-12-18T08:59:28;51.40;;;24.38;;
51312;SDS011;37397;53.226;10.400;2022-12-18T09:01:55;50.60;;;23.90;;
51312;SDS011;37397;53.226;10.400;2022-12-18T09:04:22;52.30;;;24.35;;
51312;SDS011;37397;53.226;10.400;2022-12-18T09:06:48;48.88;;;24.23;;
51312;SDS011;37397;53.226;10.400;2022-12-18T09:09:15;48.25;;;23.70;;
51312;SDS011;37397;53.226;10.400;2022-12-18T09:11:41;49.30;;;24.30;;
51312;SDS011;37397;53.226;10.400;2022-12-18T09:14:08;47.28;;;23.08;;
51312;SDS011;37397;53.226;10.400;2022-12-18T09:16:35;48.28;;;24.58;;
51312;SDS011;37397;53.226;10.400;2022-12-18T09:19:03;49.22;;;24.17;;
51312;SDS011;37397;53.226;10.400;2022-12-18T09:21:31;49.60;;;23.13;;
51312;SDS011;37397;53.226;10.400;2022-12-18T09:24:02;48.63;;;23.38;;
51312;SDS011;37397;53.226;10.400;2022-12-18T09:26:32;45.42;;;24.90;;
51312;SDS011;37397;53.226;10.400;2022-12-18T09:28:58;49.45;;;22.90;;
51312;SDS011;37397;53.226;10.400;2022-12-18T09:31:25;47.33;;;24.58;;
51312;SDS011;37397;53.226;10.400;2022-12-18T09:33:51;48.33;;;24.30;;
51312;SDS011;37397;53.226;10.400;2022-12-18T09:36:18;46.38;;;23.17;;
51312;SDS011;37397;53.226;10.400;2022-12-18T09:38:45;49.67;;;24.95;;
51312;SDS011;37397;53.226;10.400;2022-12-18T09:41:23;44.15;;;22.80;;
51312;SDS011;37397;53.226;10.400;2022-12-18T09:44:00;44.10;;;22.67;;
51312;SDS011;37397;53.226;10.400;2022-12-18T09:46:35;47.70;;;22.90;;
51312;SDS011;37397;53.226;10.400;2022-12-18T09:49:07;47.42;;;23.60;;
51312;SDS011;37397;53.226;10.400;2022-12-18T09:51:43;46.83;;;23.73;;
51312;SDS011;37397;53.226;10.400;2022-12-18T09:54:18;43.50;;;23.13;;
51312;SDS011;37397;53.226;10.400;2022-12-18T09:56:48;43.30;;;22.38;;
51312;SDS011;37397;53.226;10.400;2022-12-18T09:59:25;44.75;;;23.60;;
51312;SDS011;37397;53.226;10.400;2022-12-18T10:01:57;47.22;;;23.35;;
51312;SDS011;37397;53.226;10.400;2022-12-18T10:04:25;48.63;;;23.27;;
51312;SDS011;37397;53.226;10.400;2022-12-18T10:07:00;50.50;;;24.95;;
51312;SDS011;37397;53.226;10.400;2022-12-18T10:09:40;47.03;;;23.05;;
51312;SDS011;37397;53.226;10.400;2022-12-18T10:12:17;50.95;;;24.15;;
51312;SDS011;37397;53.226;10.400;2022-12-18T10:14:54;47.33;;;24.02;;
51312;SDS011;37397;53.226;10.400;2022-12-18T10:17:33;47.75;;;23.92;;
51312;SDS011;37397;53.226;10.400;2022-12-18T10:20:27;52.90;;;26.53;;
51312;SDS011;37397;53.226;10.400;2022-12-18T10:22:57;51.47;;;25.63;;
51312;SDS011;37397;53.226;10.400;2022-12-18T10:25:53;53.67;;;25.48;;
51312;SDS011;37397;53.226;10.400;2022-12-18T10:28:26;51.50;;;25.17;;
51312;SDS011;37397;53.226;10.400;2022-12-18T10:30:56;49.55;;;25.17;;
51312;SDS011;37397;53.226;10.400;2022-12-18T10:33:27;53.33;;;24.23;;
51312;SDS011;37397;53.226;10.400;2022-12-18T10:35:56;49.92;;;23.77;;
51312;SDS011;37397;53.226;10.400;2022-12-18T10:38:29;48.13;;;24.88;;
51312;SDS011;37397;53.226;10.400;2022-12-18T10:40:58;54.10;;;26.88;;
51312;SDS011;37397;53.226;10.400;2022-12-18T10:44:10;88.18;;;38.40;;
51312;SDS011;37397;53.226;10.400;2022-12-18T10:46:38;50.72;;;27.20;;
51312;SDS011;37397;53.226;10.400;2022-12-18T10:49:05;52.20;;;26.85;;
51312;SDS011;37397;53.226;10.400;2022-12-18T10:51:44;52.63;;;26.40;;
51312;SDS011;37397;53.226;10.400;2022-12-18T10:54:18;55.60;;;26.83;;
51312;SDS011;37397;53.226;10.400;2022-12-18T10:56:48;51.75;;;26.10;;
51312;SDS011;37397;53.226;10.400;2022-12-18T10:59:16;57.08;;;27.08;;
51312;SDS011;37397;53.226;10.400;2022-12-18T11:01:51;56.45;;;26.13;;
51312;SDS011;37397;53.226;10.400;2022-12-18T11:04:21;48.58;;;24.77;;
51312;SDS011;37397;53.226;10.400;2022-12-18T11:07:08;51.60;;;25.08;;
51312;SDS011;37397;53.226;10.400;2022-12-18T11:09:35;48.08;;;23.92;;
51312;SDS011;37397;53.226;10.400;2022-12-18T11:12:04;46.45;;;23.77;;
51312;SDS011;37397;53.226;10.400;2022-12-18T11:14:50;44.47;;;22.90;;
51312;SDS011;37397;53.226;10.400;2022-12-18T11:17:20;45.45;;;23.60;;
51312;SDS011;37397;53.226;10.400;2022-12-18T11:20:05;51.25;;;24.40;;
51312;SDS011;37397;53.226;10.400;2022-12-18T11:22:55;45.88;;;22.88;;
51312;SDS011;37397;53.226;10.400;2022-12-18T11:25:24;44.75;;;22.00;;
51312;SDS011;37397;53.226;10.400;2022-12-18T11:28:05;49.05;;;23.52;;
51312;SDS011;37397;53.226;10.400;2022-12-18T11:33:51;44.58;;;22.20;;
51312;SDS011;37397;53.226;10.400;2022-12-18T11:36:43;43.50;;;22.50;;
51312;SDS011;37397;53.226;10.400;2022-12-18T11:39:15;45.95;;;22.77;;
51312;SDS011;37397;53.226;10.400;2022-12-18T11:41:52;45.97;;;22.95;;
51312;SDS011;37397;53.226;10.400;2022-12-18T11:44:48;45.20;;;21.35;;
51312;SDS011;37397;53.226;10.400;2022-12-18T11:47:29;47.72;;;23.70;;
51312;SDS011;37397;53.226;10.400;2022-12-18T11:50:17;43.72;;;21.88;;
51312;SDS011;37397;53.226;10.400;2022-12-18T11:52:48;43.72;;;22.27;;
51312;SDS011;37397;53.226;10.400;2022-12-18T12:06:55;48.83;;;23.50;;
51312;SDS011;37397;53.226;10.400;2022-12-18T12:09:53;45.85;;;22.42;;
51312;SDS011;37397;53.226;10.400;2022-12-18T12:15:33;46.80;;;22.95;;
51312;SDS011;37397;53.226;10.400;2022-12-18T12:18:21;47.47;;;22.67;;
51312;SDS011;37397;53.226;10.400;2022-12-18T12:26:55;46.25;;;21.65;;
51312;SDS011;37397;53.226;10.400;2022-12-18T12:40:15;50.75;;;22.33;;
51312;SDS011;37397;53.226;10.400;2022-12-18T12:43:18;42.03;;;21.45;;
51312;SDS011;37397;53.226;10.400;2022-12-18T12:46:09;49.47;;;22.48;;
51312;SDS011;37397;53.226;10.400;2022-12-18T12:48:41;50.85;;;22.08;;
51312;SDS011;37397;53.226;10.400;2022-12-18T12:51:23;44.28;;;21.08;;
51312;SDS011;37397;53.226;10.400;2022-12-18T12:53:53;44.97;;;21.73;;
51312;SDS011;37397;53.226;10.400;2022-12-18T12:56:22;46.55;;;22.15;;
51312;SDS011;37397;53.226;10.400;2022-12-18T12:59:11;48.47;;;23.27;;
51312;SDS011;37397;53.226;10.400;2022-12-18T13:01:54;51.05;;;23.60;;
51312;SDS011;37397;53.226;10.400;2022-12-18T13:04:48;55.35;;;24.58;;
51312;SDS011;37397;53.226;10.400;2022-12-18T13:07:26;48.75;;;23.80;;
51312;SDS011;37397;53.226;10.400;2022-12-18T13:20:36;50.92;;;23.67;;
51312;SDS011;37397;53.226;10.400;2022-12-18T13:23:25;53.83;;;26.48;;
51312;SDS011;37397;53.226;10.400;2022-12-18T13:28:21;52.53;;;23.33;;
51312;SDS011;37397;53.226;10.400;2022-12-18T13:31:07;59.90;;;24.45;;
51312;SDS011;37397;53.226;10.400;2022-12-18T13:33:46;57.55;;;25.33;;
51312;SDS011;37397;53.226;10.400;2022-12-18T13:36:33;56.10;;;25.95;;
51312;SDS011;37397;53.226;10.400;2022-12-18T13:39:15;49.28;;;23.00;;
51312;SDS011;37397;53.226;10.400;2022-12-18T13:44:33;58.05;;;26.52;;
51312;SDS011;37397;53.226;10.400;2022-12-18T13:49:52;52.92;;;24.65;;
51312;SDS011;37397;53.226;10.400;2022-12-18T13:52:21;55.00;;;25.42;;
51312;SDS011;37397;53.226;10.400;2022-12-18T13:54:51;51.15;;;24.02;;
51312;SDS011;37397;53.226;10.400;2022-12-18T13:57:30;55.30;;;24.95;;
51312;SDS011;37397;53.226;10.400;2022-12-18T14:02:51;55.05;;;25.27;;
51312;SDS011;37397;53.226;10.400;2022-12-18T14:05:22;50.65;;;24.35;;
51312;SDS011;37397;53.226;10.400;2022-12-18T14:07:50;59.42;;;26.33;;
51312;SDS011;37397;53.226;10.400;2022-12-18T14:10:18;52.25;;;24.98;;
51312;SDS011;37397;53.226;10.400;2022-12-18T14:13:06;50.15;;;23.70;;
51312;SDS011;37397;53.226;10.400;2022-12-18T14:15:40;52.95;;;25.13;;
51312;SDS011;37397;53.226;10.400;2022-12-18T14:18:24;45.67;;;20.80;;
51312;SDS011;37397;53.226;10.400;2022-12-18T14:20:57;62.92;;;27.30;;
51312;SDS011;37397;53.226;10.400;2022-12-18T14:28:49;56.80;;;25.58;;
51312;SDS011;37397;53.226;10.400;2022-12-18T14:31:26;61.75;;;26.60;;
51312;SDS011;37397;53.226;10.400;2022-12-18T14:33:54;58.58;;;25.50;;
51312;SDS011;37397;53.226;10.400;2022-12-18T14:36:25;51.13;;;25.25;;
51312;SDS011;37397;53.226;10.400;2022-12-18T14:38:54;57.00;;;25.58;;
51312;SDS011;37397;53.226;10.400;2022-12-18T14:41:22;55.17;;;26.10;;
51312;SDS011;37397;53.226;10.400;2022-12-18T14:43:50;55.35;;;25.92;;
51312;SDS011;37397;53.226;10.400;2022-12-18T14:46:37;54.60;;;24.45;;
51312;SDS011;37397;53.226;10.400;2022-12-18T14:52:17;53.58;;;24.38;;
51312;SDS011;37397;53.226;10.400;2022-12-18T14:54:51;57.08;;;25.35;;
51312;SDS011;37397;53.226;10.400;2022-12-18T14:57:22;50.88;;;24.00;;
51312;SDS011;37397;53.226;10.400;2022-12-18T14:59:50;49.55;;;23.45;;
51312;SDS011;37397;53.226;10.400;2022-12-18T15:02:21;53.65;;;25.48;;
51312;SDS011;37397;53.226;10.400;2022-12-18T15:05:01;50.47;;;23.63;;
51312;SDS011;37397;53.226;10.400;2022-12-18T15:07:45;53.50;;;23.73;;
51312;SDS011;37397;53.226;10.400;2022-12-18T15:10:23;49.35;;;23.17;;
51312;SDS011;37397;53.226;10.400;2022-12-18T15:20:40;47.80;;;22.90;;
51312;SDS011;37397;53.226;10.400;2022-12-18T15:26:14;50.63;;;23.17;;
51312;SDS011;37397;53.226;10.400;2022-12-18T15:28:44;52.78;;;22.55;;
51312;SDS011;37397;53.226;10.400;2022-12-18T15:33:44;47.30;;;21.95;;
51312;SDS011;37397;53.226;10.400;2022-12-18T15:36:26;47.22;;;22.67;;
51312;SDS011;37397;53.226;10.400;2022-12-18T15:38:53;47.60;;;22.02;;
51312;SDS011;37397;53.226;10.400;2022-12-18T15:41:31;45.42;;;21.50;;
51312;SDS011;37397;53.226;10.400;2022-12-18T15:44:01;44.75;;;21.60;;
51312;SDS011;37397;53.226;10.400;2022-12-18T15:46:29;45.80;;;22.30;;
51312;SDS011;37397;53.226;10.400;2022-12-18T15:48:57;48.00;;;22.60;;
51312;SDS011;37397;53.226;10.400;2022-12-18T15:51:28;45.30;;;21.20;;
51312;SDS011;37397;53.226;10.400;2022-12-18T15:53:58;43.20;;;21.55;;
51312;SDS011;37397;53.226;10.400;2022-12-18T15:56:27;47.47;;;22.88;;
51312;SDS011;37397;53.226;10.400;2022-12-18T15:59:13;41.58;;;21.50;;
51312;SDS011;37397;53.226;10.400;2022-12-18T16:01:41;44.83;;;21.23;;
51312;SDS011;37397;53.226;10.400;2022-12-18T16:04:13;48.45;;;21.65;;
51312;SDS011;37397;53.226;10.400;2022-12-18T16:06:41;43.50;;;21.25;;
51312;SDS011;37397;53.226;10.400;2022-12-18T16:09:28;39.72;;;20.83;;
51312;SDS011;37397;53.226;10.400;2022-12-18T16:11:54;50.13;;;23.25;;
51312;SDS011;37397;53.226;10.400;2022-12-18T16:14:25;42.72;;;21.40;;
51312;SDS011;37397;53.226;10.400;2022-12-18T16:16:55;41.15;;;21.52;;
51312;SDS011;37397;53.226;10.400;2022-12-18T16:19:27;42.45;;;21.52;;
51312;SDS011;37397;53.226;10.400;2022-12-18T16:21:54;46.22;;;21.55;;